createdAt,value
2018-04-02T15:50:40.403Z,5
2018-04-02T15:55:42.887Z,6
2018-04-02T16:00:45.320Z,6
2018-04-02T16:10:50.203Z,6
2018-04-02T16:25:57.538Z,7
2018-04-02T16:30:59.982Z,6
2018-04-02T16:36:02.460Z,6
2018-04-02T16:41:04.848Z,6
2018-04-02T16:46:07.378Z,6
2018-04-02T16:51:09.757Z,6
2018-04-02T16:56:12.220Z,6
2018-04-02T17:06:17.109Z,6
2018-04-02T17:11:19.525Z,6
2018-04-02T17:16:21.990Z,5.5
2018-04-02T17:21:24.418Z,5
2018-04-02T17:26:26.907Z,5
2018-04-02T17:31:29.337Z,6
2018-04-02T17:36:31.790Z,5
2018-04-02T17:41:34.211Z,6
2018-04-02T17:46:36.688Z,6
2018-04-02T17:51:39.707Z,6
2018-04-02T17:56:41.537Z,5
2018-04-02T18:01:43.969Z,5
2018-04-02T18:06:46.493Z,6
2018-04-02T18:11:48.867Z,5
2018-04-02T18:16:51.624Z,5
2018-04-02T18:21:53.762Z,6
2018-04-02T18:26:56.216Z,6
2018-04-02T18:31:58.712Z,6
2018-04-02T18:37:01.108Z,6
2018-04-02T18:42:03.614Z,6
2018-04-02T18:47:06.004Z,6
2018-04-02T18:52:08.463Z,6
2018-04-02T18:57:10.901Z,6
2018-04-02T19:02:13.365Z,6
2018-04-02T19:07:15.805Z,6
2018-04-02T19:12:18.280Z,6
2018-04-02T19:17:20.709Z,7
2018-04-02T19:22:23.174Z,7
2018-04-02T19:27:25.663Z,6.5
2018-04-02T19:32:28.109Z,7
2018-04-02T19:37:30.578Z,7
2018-04-02T19:42:33.033Z,7
2018-04-02T19:47:35.433Z,8
2018-04-02T19:52:37.877Z,7
2018-04-02T19:57:40.316Z,7
2018-04-02T20:02:42.758Z,7
2018-04-02T20:07:45.220Z,6
2018-04-02T20:12:47.665Z,7
2018-04-02T20:17:50.095Z,6
2018-04-02T20:22:52.626Z,7
2018-04-02T20:27:54.986Z,6
2018-04-02T20:32:57.489Z,6
2018-04-02T20:37:59.894Z,6
2018-04-02T20:43:02.364Z,6
2018-04-02T20:48:04.784Z,6
2018-04-02T20:53:07.270Z,6
2018-04-02T20:58:09.693Z,6
2018-04-02T21:03:12.216Z,6
2018-04-02T21:08:14.568Z,5
2018-04-02T21:13:17.060Z,5
2018-04-02T21:18:19.474Z,5
2018-04-02T21:23:21.980Z,5
2018-04-02T21:28:24.364Z,5
2018-04-02T21:33:26.790Z,5
2018-04-02T21:38:29.254Z,4.5
2018-04-02T21:43:31.706Z,4
2018-04-02T21:48:34.174Z,4
2018-04-02T21:53:36.581Z,4
2018-04-02T21:58:39.073Z,4
2018-04-02T22:03:41.491Z,4
2018-04-02T22:08:43.963Z,4
2018-04-02T22:13:46.400Z,4
2018-04-02T22:23:51.306Z,4
2018-04-02T22:28:53.733Z,4
2018-04-02T22:33:56.174Z,4
2018-04-02T22:38:58.632Z,4
2018-04-02T22:44:01.093Z,3
2018-04-02T22:49:03.517Z,4
2018-04-02T22:54:05.974Z,4
2018-04-02T22:59:08.411Z,4
2018-04-02T23:04:10.872Z,3
2018-04-02T23:09:13.311Z,4
2018-04-02T23:14:15.751Z,3
2018-04-02T23:19:18.191Z,3.5
2018-04-02T23:24:20.698Z,3
2018-04-02T23:29:23.108Z,3
2018-04-02T23:34:25.591Z,3
2018-04-02T23:39:28.001Z,3
2018-04-02T23:44:30.459Z,3
2018-04-02T23:49:32.890Z,3
2018-04-02T23:54:35.355Z,3
2018-04-02T23:59:37.793Z,3
